JZA18 CYOW-CYUL
Flight info
| Callsign | JZA18 |
|---|---|
| Flight time | 0h 27m |
| Altitude | 15000 |
| Route | TAKOL DCT EMPEK LFLER7 |
| Aircraft | CRJ9/M-SDFGIRWYZ/SB1 |
Departure
| Time | 2026-04-30 21:45 |
|---|---|
| Airport | Ottawa Macdonald-Cartier International Airport (CYOW) |
Arrival
| Time | 2026-04-30 22:12 |
|---|---|
| Airport | Montreal / Pierre Elliott Trudeau International Airport (CYUL) |
| Time | Latitude | Longitude | Altitude | Speed | Heading |
|---|---|---|---|---|---|
| 2026-04-30 20:56 | 45.32102 | -75.66414 | 375 ft | 0 kts | 258° |
| 2026-04-30 21:37 | 45.32125 | -75.66354 | 375 ft | 0 kts | 147° |
| 2026-04-30 21:38 | 45.32126 | -75.66354 | 375 ft | 0 kts | 147° |
| 2026-04-30 21:39 | 45.32124 | -75.66352 | 375 ft | 3 kts | 147° |
| 2026-04-30 21:40 | 45.32069 | -75.66304 | 375 ft | 14 kts | 148° |
| 2026-04-30 21:40 | 45.32000 | -75.66236 | 375 ft | 8 kts | 129° |
| 2026-04-30 21:40 | 45.31999 | -75.66162 | 375 ft | 8 kts | 70° |
| 2026-04-30 21:40 | 45.32030 | -75.66080 | 373 ft | 10 kts | 58° |
| 2026-04-30 21:41 | 45.32066 | -75.65995 | 374 ft | 10 kts | 58° |
| 2026-04-30 21:41 | 45.32105 | -75.65909 | 373 ft | 11 kts | 56° |
| 2026-04-30 21:41 | 45.32148 | -75.65815 | 372 ft | 12 kts | 57° |
| 2026-04-30 21:41 | 45.32190 | -75.65722 | 374 ft | 11 kts | 57° |
| 2026-04-30 21:42 | 45.32229 | -75.65637 | 374 ft | 10 kts | 57° |
| 2026-04-30 21:42 | 45.32269 | -75.65548 | 374 ft | 11 kts | 58° |
| 2026-04-30 21:42 | 45.32310 | -75.65455 | 375 ft | 11 kts | 58° |
| 2026-04-30 21:42 | 45.32357 | -75.65349 | 375 ft | 15 kts | 57° |
| 2026-04-30 21:43 | 45.32422 | -75.65204 | 372 ft | 20 kts | 57° |
| 2026-04-30 21:43 | 45.32503 | -75.65026 | 370 ft | 22 kts | 57° |
| 2026-04-30 21:43 | 45.32578 | -75.64855 | 368 ft | 19 kts | 62° |
| 2026-04-30 21:43 | 45.32575 | -75.64687 | 369 ft | 16 kts | 99° |
| 2026-04-30 21:44 | 45.32520 | -75.64560 | 367 ft | 9 kts | 145° |
| 2026-04-30 21:44 | 45.32487 | -75.64549 | 370 ft | 2 kts | 224° |
| 2026-04-30 21:44 | 45.32424 | -75.64697 | 366 ft | 48 kts | 238° |
| 2026-04-30 21:44 | 45.32109 | -75.65400 | 371 ft | 117 kts | 237° |
| 2026-04-30 21:45 | 45.31583 | -75.66557 | 502 ft | 152 kts | 239° |
| 2026-04-30 21:45 | 45.31056 | -75.67850 | 1156 ft | 150 kts | 249° |
| 2026-04-30 21:45 | 45.30606 | -75.69216 | 1834 ft | 153 kts | 248° |
| 2026-04-30 21:45 | 45.30094 | -75.70658 | 2219 ft | 176 kts | 247° |
| 2026-04-30 21:46 | 45.29789 | -75.72429 | 2544 ft | 201 kts | 279° |
| 2026-04-30 21:46 | 45.30420 | -75.74222 | 3404 ft | 211 kts | 315° |
| 2026-04-30 21:46 | 45.31644 | -75.75552 | 4166 ft | 230 kts | 324° |
| 2026-04-30 21:46 | 45.33018 | -75.76851 | 5009 ft | 245 kts | 326° |
| 2026-04-30 21:47 | 45.34588 | -75.77830 | 5877 ft | 257 kts | 352° |
| 2026-04-30 21:47 | 45.36348 | -75.77297 | 6834 ft | 270 kts | 29° |
| 2026-04-30 21:47 | 45.37753 | -75.75453 | 7699 ft | 281 kts | 46° |
| 2026-04-30 21:47 | 45.39056 | -75.73340 | 8562 ft | 288 kts | 49° |
| 2026-04-30 21:48 | 45.40321 | -75.71088 | 9449 ft | 295 kts | 51° |
| 2026-04-30 21:48 | 45.41564 | -75.68722 | 10273 ft | 301 kts | 54° |
| 2026-04-30 21:48 | 45.42810 | -75.66189 | 10659 ft | 323 kts | 55° |
| 2026-04-30 21:48 | 45.44115 | -75.63460 | 11051 ft | 343 kts | 56° |
| 2026-04-30 21:49 | 45.45473 | -75.60545 | 11475 ft | 361 kts | 57° |
| 2026-04-30 21:49 | 45.46904 | -75.57499 | 11898 ft | 378 kts | 56° |
| 2026-04-30 21:49 | 45.48418 | -75.54354 | 12323 ft | 392 kts | 55° |
| 2026-04-30 21:49 | 45.49973 | -75.51143 | 13035 ft | 395 kts | 56° |
| 2026-04-30 21:50 | 45.51532 | -75.47908 | 13705 ft | 398 kts | 56° |
| 2026-04-30 21:50 | 45.53095 | -75.44659 | 14293 ft | 402 kts | 56° |
| 2026-04-30 21:50 | 45.54692 | -75.41326 | 14699 ft | 411 kts | 56° |
| 2026-04-30 21:50 | 45.56317 | -75.37938 | 14867 ft | 416 kts | 56° |
| 2026-04-30 21:51 | 45.57961 | -75.34517 | 14957 ft | 418 kts | 56° |
| 2026-04-30 21:51 | 45.59585 | -75.31120 | 14986 ft | 410 kts | 56° |
| 2026-04-30 21:51 | 45.61177 | -75.27782 | 15004 ft | 404 kts | 56° |
| 2026-04-30 21:51 | 45.62753 | -75.24486 | 15018 ft | 400 kts | 56° |
| 2026-04-30 21:52 | 45.64307 | -75.21189 | 15016 ft | 399 kts | 58° |
| 2026-04-30 21:52 | 45.65692 | -75.17741 | 15035 ft | 401 kts | 63° |
| 2026-04-30 21:52 | 45.66919 | -75.14143 | 15028 ft | 404 kts | 66° |
| 2026-04-30 21:52 | 45.68051 | -75.10441 | 15033 ft | 407 kts | 68° |
| 2026-04-30 21:53 | 45.69165 | -75.06708 | 15043 ft | 410 kts | 68° |
| 2026-04-30 21:53 | 45.70307 | -75.02949 | 15044 ft | 413 kts | 67° |
| 2026-04-30 21:53 | 45.71489 | -74.99199 | 15039 ft | 413 kts | 67° |
| 2026-04-30 21:53 | 45.72650 | -74.95504 | 15041 ft | 412 kts | 67° |
| 2026-04-30 21:54 | 45.73825 | -74.91762 | 15032 ft | 411 kts | 67° |
| 2026-04-30 21:54 | 45.74995 | -74.88036 | 15028 ft | 410 kts | 67° |
| 2026-04-30 21:54 | 45.76174 | -74.84268 | 15019 ft | 409 kts | 67° |
| 2026-04-30 21:54 | 45.77318 | -74.80605 | 15032 ft | 409 kts | 67° |
| 2026-04-30 21:55 | 45.78476 | -74.76890 | 15035 ft | 408 kts | 67° |
| 2026-04-30 21:55 | 45.79632 | -74.73179 | 15034 ft | 407 kts | 67° |
| 2026-04-30 21:55 | 45.80790 | -74.69464 | 15031 ft | 407 kts | 68° |
| 2026-04-30 21:55 | 45.81941 | -74.65763 | 15034 ft | 407 kts | 67° |
| 2026-04-30 21:56 | 45.83087 | -74.62062 | 15031 ft | 406 kts | 68° |
| 2026-04-30 21:56 | 45.84235 | -74.58366 | 15031 ft | 403 kts | 68° |
| 2026-04-30 21:56 | 45.85335 | -74.54804 | 15007 ft | 378 kts | 68° |
| 2026-04-30 21:56 | 45.86367 | -74.51450 | 15003 ft | 357 kts | 68° |
| 2026-04-30 21:57 | 45.87354 | -74.48251 | 14641 ft | 351 kts | 68° |
| 2026-04-30 21:57 | 45.88343 | -74.45041 | 14132 ft | 350 kts | 68° |
| 2026-04-30 21:57 | 45.89322 | -74.41861 | 13638 ft | 348 kts | 67° |
| 2026-04-30 21:57 | 45.90198 | -74.38683 | 13085 ft | 344 kts | 78° |
| 2026-04-30 21:58 | 45.90216 | -74.35315 | 12524 ft | 336 kts | 106° |
| 2026-04-30 21:58 | 45.89217 | -74.32361 | 12009 ft | 328 kts | 128° |
| 2026-04-30 21:58 | 45.87780 | -74.29851 | 11512 ft | 323 kts | 137° |
| 2026-04-30 21:58 | 45.86114 | -74.27726 | 11106 ft | 316 kts | 144° |
| 2026-04-30 21:59 | 45.84412 | -74.25801 | 10849 ft | 307 kts | 144° |
| 2026-04-30 21:59 | 45.82738 | -74.23965 | 10589 ft | 299 kts | 146° |
| 2026-04-30 21:59 | 45.81092 | -74.22195 | 10293 ft | 294 kts | 146° |
| 2026-04-30 22:00 | 45.77909 | -74.18622 | 9688 ft | 287 kts | 144° |
| 2026-04-30 22:00 | 45.74922 | -74.14905 | 8981 ft | 285 kts | 127° |
| 2026-04-30 22:00 | 45.73920 | -74.12466 | 8677 ft | 283 kts | 119° |
| 2026-04-30 22:01 | 45.73182 | -74.09850 | 8364 ft | 290 kts | 108° |
| 2026-04-30 22:01 | 45.72628 | -74.07012 | 8081 ft | 307 kts | 105° |
| 2026-04-30 22:01 | 45.72108 | -74.04012 | 7810 ft | 303 kts | 105° |
| 2026-04-30 22:01 | 45.71606 | -74.01155 | 7530 ft | 297 kts | 105° |
| 2026-04-30 22:02 | 45.71096 | -73.98329 | 7219 ft | 291 kts | 106° |
| 2026-04-30 22:02 | 45.70557 | -73.95570 | 6911 ft | 286 kts | 106° |
| 2026-04-30 22:02 | 45.70015 | -73.92855 | 6595 ft | 281 kts | 107° |
| 2026-04-30 22:02 | 45.69483 | -73.90187 | 6302 ft | 277 kts | 106° |
| 2026-04-30 22:03 | 45.68957 | -73.87559 | 6049 ft | 273 kts | 106° |
| 2026-04-30 22:03 | 45.68436 | -73.84974 | 5773 ft | 267 kts | 107° |
| 2026-04-30 22:03 | 45.67930 | -73.82444 | 5497 ft | 262 kts | 107° |
| 2026-04-30 22:03 | 45.67434 | -73.79956 | 5221 ft | 258 kts | 106° |
| 2026-04-30 22:04 | 45.67108 | -73.78318 | 5049 ft | 256 kts | 106° |
| 2026-04-30 22:04 | 45.66623 | -73.75885 | 4793 ft | 253 kts | 106° |
| 2026-04-30 22:04 | 45.65681 | -73.71097 | 4266 ft | 248 kts | 106° |
| 2026-04-30 22:05 | 45.65215 | -73.68739 | 4011 ft | 246 kts | 106° |
| 2026-04-30 22:05 | 45.64744 | -73.66394 | 3752 ft | 244 kts | 106° |
| 2026-04-30 22:05 | 45.64274 | -73.64079 | 3482 ft | 242 kts | 106° |
| 2026-04-30 22:05 | 45.63803 | -73.61766 | 3219 ft | 242 kts | 106° |
| 2026-04-30 22:06 | 45.63314 | -73.59421 | 3113 ft | 248 kts | 106° |
| 2026-04-30 22:06 | 45.62287 | -73.54673 | 3010 ft | 250 kts | 114° |
| 2026-04-30 22:06 | 45.61231 | -73.52749 | 2987 ft | 246 kts | 147° |
| 2026-04-30 22:07 | 45.59674 | -73.51911 | 2992 ft | 238 kts | 180° |
| 2026-04-30 22:07 | 45.58112 | -73.52354 | 3005 ft | 222 kts | 213° |
| 2026-04-30 22:07 | 45.57138 | -73.53797 | 3033 ft | 190 kts | 249° |
| 2026-04-30 22:07 | 45.56742 | -73.55468 | 3029 ft | 168 kts | 259° |
| 2026-04-30 22:08 | 45.56529 | -73.57135 | 2984 ft | 176 kts | 259° |
| 2026-04-30 22:08 | 45.56256 | -73.58854 | 2718 ft | 180 kts | 262° |
| 2026-04-30 22:08 | 45.55963 | -73.60550 | 2492 ft | 172 kts | 253° |
| 2026-04-30 22:08 | 45.55538 | -73.61997 | 2335 ft | 146 kts | 248° |
| 2026-04-30 22:09 | 45.55121 | -73.63194 | 2137 ft | 129 kts | 248° |
| 2026-04-30 22:09 | 45.54674 | -73.64334 | 1995 ft | 135 kts | 243° |
| 2026-04-30 22:09 | 45.54115 | -73.65471 | 1806 ft | 145 kts | 237° |
| 2026-04-30 22:09 | 45.53498 | -73.66573 | 1568 ft | 136 kts | 235° |
| 2026-04-30 22:10 | 45.52886 | -73.67548 | 1371 ft | 130 kts | 233° |
| 2026-04-30 22:10 | 45.52243 | -73.68497 | 1203 ft | 134 kts | 229° |
| 2026-04-30 22:10 | 45.51559 | -73.69392 | 1026 ft | 135 kts | 226° |
| 2026-04-30 22:10 | 45.50844 | -73.70285 | 888 ft | 138 kts | 227° |
| 2026-04-30 22:11 | 45.49367 | -73.72208 | 393 ft | 142 kts | 227° |
| 2026-04-30 22:11 | 45.48682 | -73.73128 | 209 ft | 132 kts | 228° |
| 2026-04-30 22:11 | 45.48010 | -73.74015 | 111 ft | 122 kts | 225° |
| 2026-04-30 22:12 | 45.47514 | -73.74668 | 109 ft | 74 kts | 221° |
| 2026-04-30 22:12 | 45.47217 | -73.75062 | 112 ft | 48 kts | 220° |
| 2026-04-30 22:12 | 45.46984 | -73.75358 | 107 ft | 39 kts | 221° |
| 2026-04-30 22:12 | 45.46785 | -73.75558 | 106 ft | 30 kts | 202° |
| 2026-04-30 22:13 | 45.46599 | -73.75635 | 104 ft | 20 kts | 192° |
| 2026-04-30 22:13 | 45.46446 | -73.75676 | 103 ft | 23 kts | 198° |
| 2026-04-30 22:13 | 45.46325 | -73.75721 | 102 ft | 19 kts | 191° |
| 2026-04-30 22:13 | 45.46203 | -73.75727 | 101 ft | 9 kts | 179° |
| 2026-04-30 22:14 | 45.46137 | -73.75674 | 100 ft | 13 kts | 115° |
| 2026-04-30 22:14 | 45.46135 | -73.75547 | 100 ft | 15 kts | 86° |
| 2026-04-30 22:14 | 45.46142 | -73.75378 | 99 ft | 18 kts | 89° |
| 2026-04-30 22:14 | 45.46145 | -73.75210 | 99 ft | 12 kts | 88° |
| 2026-04-30 22:15 | 45.46149 | -73.75092 | 101 ft | 11 kts | 87° |
| 2026-04-30 22:15 | 45.46152 | -73.74986 | 103 ft | 10 kts | 86° |
| 2026-04-30 22:15 | 45.46155 | -73.74892 | 102 ft | 10 kts | 88° |
| 2026-04-30 22:15 | 45.46158 | -73.74766 | 102 ft | 15 kts | 87° |
| 2026-04-30 22:16 | 45.46161 | -73.74644 | 102 ft | 10 kts | 90° |
| 2026-04-30 22:16 | 45.46141 | -73.74568 | 102 ft | 7 kts | 129° |
| 2026-04-30 22:17 | 45.46076 | -73.74536 | 102 ft | 2 kts | 256° |
| 2026-04-30 22:17 | 45.46074 | -73.74556 | 102 ft | 2 kts | 263° |
| 2026-04-30 22:17 | 45.46072 | -73.74589 | 102 ft | 2 kts | 268° |
| 2026-04-30 22:18 | 45.46072 | -73.74605 | 102 ft | 1 kts | 268° |
| 2026-04-30 22:18 | 45.46072 | -73.74611 | 102 ft | 0 kts | 268° |
| 2026-04-30 22:22 | 45.46072 | -73.74612 | 102 ft | 0 kts | 268° |